Time;durP1;ratioP1;P1;durP2;ratioP2;P2;SDS_P1;SDS_P2;PMS_P1;PMS_P2;Temp;Humidity;BMP_temperature;BMP_pressure;BME280_temperature;BME280_humidity;BME280_pressure;Samples;Min_cycle;Max_cycle;Signal;HPM_P1;HPM_P2
2023/08/10 00:02:25;;;;;;;8.97;2.90;;;;;;;14.77;90.37;101909.41;5263581;28;20044;-77
2023/08/10 00:04:56;;;;;;;5.87;2.57;;;;;;;14.77;90.04;101905.91;5264242;28;20033;-79
2023/08/10 00:07:28;;;;;;;10.03;3.53;;;;;;;14.71;89.25;101903.34;5264377;28;20069;-78
2023/08/10 00:09:59;;;;;;;5.97;3.57;;;;;;;14.55;88.87;101903.53;5262445;28;20045;-78
2023/08/10 00:12:31;;;;;;;6.25;3.42;;;;;;;14.61;89.01;101907.84;5264120;28;20029;-77
2023/08/10 00:15:03;;;;;;;8.40;3.60;;;;;;;14.52;89.36;101905.28;5262570;28;20033;-78
2023/08/10 00:17:34;;;;;;;6.45;3.28;;;;;;;14.61;90.05;101909.63;5263997;28;20032;-77
2023/08/10 00:20:10;;;;;;;7.23;3.27;;;;;;;14.38;90.04;101910.72;5263867;28;20119;-77
2023/08/10 00:22:41;;;;;;;6.47;3.38;;;;;;;14.54;90.00;101909.66;5263481;28;20033;-78
2023/08/10 00:25:12;;;;;;;8.53;3.93;;;;;;;14.45;90.51;101922.00;5263749;28;20043;-77
2023/08/10 00:27:44;;;;;;;7.27;3.57;;;;;;;14.56;91.12;101910.47;5263736;28;20082;-78
2023/08/10 00:30:15;;;;;;;5.57;3.60;;;;;;;14.58;90.24;101910.47;5262671;28;20036;-77
2023/08/10 00:32:46;;;;;;;16.70;4.23;;;;;;;14.59;90.22;101910.50;5263185;28;20040;-78
2023/08/10 00:35:18;;;;;;;6.80;3.87;;;;;;;14.50;90.39;101925.44;5263250;28;20388;-78
2023/08/10 00:37:50;;;;;;;8.57;3.73;;;;;;;14.46;90.47;101919.34;5263605;28;20037;-77
2023/08/10 00:40:21;;;;;;;5.53;3.60;;;;;;;14.48;91.03;101921.97;5263082;28;20441;-77
2023/08/10 00:42:54;;;;;;;8.50;3.40;;;;;;;14.52;91.09;101921.03;5263404;28;20024;-78
2023/08/10 00:45:25;;;;;;;8.70;3.75;;;;;;;14.65;91.89;101911.28;5263212;28;20029;-77
2023/08/10 00:47:57;;;;;;;12.53;4.03;;;;;;;14.65;90.87;101909.56;5263287;28;20480;-77
2023/08/10 00:50:30;;;;;;;9.07;3.47;;;;;;;14.43;91.28;101919.38;5262353;28;20562;-78
2023/08/10 00:53:01;;;;;;;5.38;3.50;;;;;;;14.50;91.55;101910.56;5263076;28;20163;-77
2023/08/10 00:55:33;;;;;;;7.13;3.33;;;;;;;14.36;92.10;101899.34;5263147;28;20123;-77
2023/08/10 00:58:04;;;;;;;8.17;3.73;;;;;;;14.38;92.74;101905.47;5263301;28;20037;-78
2023/08/10 01:00:35;;;;;;;8.17;3.80;;;;;;;14.23;92.93;101903.84;5261519;28;20029;-77
2023/08/10 01:03:07;;;;;;;6.97;3.53;;;;;;;14.25;93.53;101903.81;5263097;28;20033;-78
2023/08/10 01:05:48;;;;;;;6.75;4.03;;;;;;;14.15;93.73;101905.66;5262952;28;20029;-77
2023/08/10 01:08:30;;;;;;;5.75;4.05;;;;;;;14.12;94.79;101916.19;5262627;28;20461;-77
2023/08/10 01:11:16;;;;;;;7.40;3.50;;;;;;;14.04;95.02;101916.28;5263062;28;20500;-77
2023/08/10 01:13:57;;;;;;;6.25;3.45;;;;;;;14.06;95.40;101918.91;5262597;28;20105;-77
2023/08/10 01:16:30;;;;;;;7.72;4.00;;;;;;;14.15;95.30;101911.81;5262910;28;20381;-77
2023/08/10 01:19:03;;;;;;;9.70;4.30;;;;;;;14.20;95.40;101911.78;5262394;28;20392;-78
2023/08/10 01:21:50;;;;;;;7.55;3.70;;;;;;;14.14;97.05;101915.31;5262575;28;20036;-77
2023/08/10 01:24:38;;;;;;;6.72;3.60;;;;;;;14.27;96.11;101915.19;5263526;28;20134;-76
2023/08/10 01:27:13;;;;;;;6.43;3.55;;;;;;;14.21;96.79;101919.59;5262786;28;20053;-78
2023/08/10 01:29:45;;;;;;;11.00;3.63;;;;;;;14.14;96.14;101917.06;5262398;28;20083;-77
2023/08/10 01:32:17;;;;;;;8.73;3.75;;;;;;;14.07;96.30;101920.63;5262613;28;20061;-76
2023/08/10 01:34:50;;;;;;;5.33;3.67;;;;;;;14.07;96.82;101913.63;5262271;28;20024;-77
2023/08/10 01:37:22;;;;;;;7.50;4.43;;;;;;;13.92;97.13;101922.47;5262756;28;20021;-77
2023/08/10 01:39:53;;;;;;;8.97;3.73;;;;;;;14.02;97.63;101920.66;5260858;28;20040;-79
2023/08/10 01:42:25;;;;;;;6.80;3.23;;;;;;;13.94;98.14;101912.88;5244712;28;20088;-78
2023/08/10 01:44:56;;;;;;;6.90;3.67;;;;;;;13.92;99.17;101916.38;5262726;28;20384;-77
2023/08/10 01:47:36;;;;;;;7.53;3.57;;;;;;;13.80;99.87;101920.84;5262523;28;20036;-77
2023/08/10 01:50:08;;;;;;;6.93;3.72;;;;;;;13.67;100.00;101919.22;5262446;28;20418;-78
2023/08/10 01:52:56;;;;;;;7.90;4.30;;;;;;;13.69;100.00;101917.44;5262414;28;20041;-78
2023/08/10 01:55:28;;;;;;;5.68;3.85;;;;;;;13.61;100.00;101921.88;5262229;28;20040;-77
2023/08/10 01:58:00;;;;;;;5.72;3.60;;;;;;;13.68;100.00;101918.31;5260941;28;20033;-76
2023/08/10 02:00:31;;;;;;;6.17;3.63;;;;;;;13.61;100.00;101922.72;5260793;28;20356;-78
2023/08/10 02:03:06;;;;;;;5.10;4.33;;;;;;;13.55;100.00;101922.78;5262248;28;20025;-77
2023/08/10 02:05:37;;;;;;;6.63;3.88;;;;;;;13.43;100.00;101921.13;5262067;28;20037;-78
2023/08/10 02:08:09;;;;;;;6.33;3.37;;;;;;;13.38;100.00;101922.91;5265892;28;20053;-75
2023/08/10 02:10:41;;;;;;;;;;;;;;;13.37;100.00;101921.16;5266486;28;20065;-77
2023/08/10 02:13:13;;;;;;;5.45;3.53;;;;;;;13.28;100.00;101918.53;5265886;28;19920;-77
2023/08/10 02:15:44;;;;;;;7.57;4.77;;;;;;;13.23;100.00;101921.19;5264709;28;20029;-77
2023/08/10 02:18:15;;;;;;;6.40;4.40;;;;;;;13.19;100.00;101927.34;5264837;28;20057;-77
2023/08/10 02:20:47;;;;;;;6.33;3.80;;;;;;;13.15;100.00;101925.59;5266063;28;20033;-77
2023/08/10 02:23:18;;;;;;;7.73;3.93;;;;;;;13.08;100.00;101922.13;5266156;28;20029;-77
2023/08/10 02:25:50;;;;;;;8.00;4.50;;;;;;;13.07;100.00;101930.00;5266061;28;20029;-76
2023/08/10 02:28:21;;;;;;;6.13;4.30;;;;;;;13.04;100.00;101927.41;5265699;28;20029;-77
2023/08/10 02:30:52;;;;;;;6.07;3.90;;;;;;;13.09;100.00;101928.28;5265650;28;20096;-76
2023/08/10 02:33:24;;;;;;;7.27;3.70;;;;;;;13.11;100.00;101935.22;5265584;28;20040;-77
2023/08/10 02:35:55;;;;;;;8.57;4.13;;;;;;;13.03;100.00;101931.78;5265880;28;20037;-77
2023/08/10 02:38:26;;;;;;;7.43;4.33;;;;;;;12.95;100.00;101929.19;5264165;28;20033;-76
2023/08/10 02:40:58;;;;;;;8.63;4.27;;;;;;;12.86;100.00;101934.44;5265791;28;20025;-77
2023/08/10 02:43:29;;;;;;;9.00;4.10;;;;;;;12.79;100.00;101929.28;5265758;28;20033;-77
2023/08/10 02:46:00;;;;;;;5.37;3.97;;;;;;;12.80;100.00;101928.38;5265880;28;20103;-78
2023/08/10 02:48:32;;;;;;;14.60;4.30;;;;;;;12.76;100.00;101927.53;5265374;28;20044;-77
2023/08/10 02:51:03;;;;;;;5.73;3.80;;;;;;;12.73;100.00;101924.91;5265688;28;20131;-77
2023/08/10 02:53:35;;;;;;;5.83;3.70;;;;;;;12.73;100.00;101925.78;5265302;28;20124;-78
2023/08/10 02:56:06;;;;;;;8.77;3.80;;;;;;;12.64;100.00;101935.41;5265386;28;20381;-77
2023/08/10 02:58:38;;;;;;;7.10;3.97;;;;;;;12.66;100.00;101933.66;5265354;28;20033;-77
2023/08/10 03:01:09;;;;;;;8.88;4.05;;;;;;;12.59;100.00;101932.81;5265402;28;20029;-77
2023/08/10 03:03:41;;;;;;;7.17;4.10;;;;;;;12.51;100.00;101934.56;5264090;28;20457;-77
2023/08/10 03:06:12;;;;;;;6.93;3.77;;;;;;;12.51;100.00;101940.69;5264885;28;20057;-77
2023/08/10 03:08:43;;;;;;;6.33;4.07;;;;;;;12.46;100.00;101934.59;5263528;28;20036;-78
2023/08/10 03:11:15;;;;;;;6.80;4.20;;;;;;;12.48;100.00;101939.81;5263529;28;20157;-76
2023/08/10 03:13:46;;;;;;;18.93;4.73;;;;;;;12.39;100.00;101940.69;5265266;28;20086;-77
2023/08/10 03:16:18;;;;;;;8.10;4.20;;;;;;;12.31;100.00;101940.69;5265121;28;20469;-77
2023/08/10 03:18:49;;;;;;;7.37;4.40;;;;;;;12.36;100.00;101949.44;5263791;28;20035;-78
2023/08/10 03:21:21;;;;;;;10.13;5.00;;;;;;;12.34;100.00;101951.16;5264951;28;20040;-76
2023/08/10 03:23:52;;;;;;;5.90;4.43;;;;;;;12.30;100.00;101944.22;5264991;28;20029;-77
2023/08/10 03:26:24;;;;;;;6.53;4.30;;;;;;;12.28;100.00;101939.84;5264745;28;20456;-76
2023/08/10 03:28:55;;;;;;;8.17;4.37;;;;;;;12.23;100.00;101942.47;5264710;28;20112;-77
2023/08/10 03:31:26;;;;;;;11.33;5.83;;;;;;;12.28;100.00;101953.78;5265085;28;20088;-77
2023/08/10 03:33:58;;;;;;;9.00;4.77;;;;;;;12.27;100.00;101943.31;5264717;28;20036;-77
2023/08/10 03:36:29;;;;;;;7.20;4.47;;;;;;;12.26;100.00;101938.97;5264630;28;20094;-77
2023/08/10 03:39:01;;;;;;;8.67;5.13;;;;;;;12.22;100.00;101925.91;5264513;28;20029;-76
2023/08/10 03:41:32;;;;;;;9.57;5.13;;;;;;;12.22;100.00;101938.13;5264491;28;20033;-77
2023/08/10 03:44:04;;;;;;;6.50;5.07;;;;;;;12.18;100.00;101936.38;5263329;28;20120;-76
2023/08/10 03:46:35;;;;;;;8.63;4.77;;;;;;;12.15;100.00;101938.97;5264416;28;20063;-77
2023/08/10 03:49:06;;;;;;;9.13;4.60;;;;;;;12.23;100.00;101937.22;5264520;28;20033;-77
2023/08/10 03:51:38;;;;;;;8.53;5.63;;;;;;;12.17;100.00;101943.34;5264072;28;20105;-78
2023/08/10 03:54:09;;;;;;;11.73;5.23;;;;;;;12.11;100.00;101945.97;5264261;28;20106;-76
2023/08/10 03:56:40;;;;;;;9.13;4.77;;;;;;;12.20;100.00;101945.06;5264150;28;20412;-77
2023/08/10 03:59:13;;;;;;;9.27;5.03;;;;;;;12.19;100.00;101945.97;5264174;28;20029;-77
2023/08/10 04:01:45;;;;;;;9.13;5.38;;;;;;;12.14;100.00;101948.56;5264164;28;20079;-75
2023/08/10 04:04:16;;;;;;;6.67;5.40;;;;;;;12.08;100.00;101945.97;5264124;28;20037;-76
2023/08/10 04:06:47;;;;;;;8.40;6.00;;;;;;;12.01;100.00;101945.09;5263724;28;20025;-77
2023/08/10 04:09:19;;;;;;;8.93;5.07;;;;;;;11.94;100.00;101951.19;5261872;28;20037;-77
2023/08/10 04:11:51;;;;;;;7.80;4.20;;;;;;;11.87;100.00;101952.03;5263532;28;20088;-77
2023/08/10 04:14:23;;;;;;;9.07;5.85;;;;;;;11.90;100.00;101958.97;5263932;28;20112;-78
2023/08/10 04:16:54;;;;;;;8.57;4.77;;;;;;;11.92;100.00;101955.53;5263868;28;20033;-78
2023/08/10 04:19:25;;;;;;;7.47;4.70;;;;;;;11.88;100.00;101958.97;5263641;28;20041;-78
2023/08/10 04:21:57;;;;;;;6.23;4.93;;;;;;;11.92;100.00;101955.53;5263456;28;20385;-78
2023/08/10 04:24:28;;;;;;;7.90;4.73;;;;;;;11.88;100.00;101955.50;5263685;28;20044;-77
2023/08/10 04:27:00;;;;;;;6.93;4.77;;;;;;;11.89;100.00;101963.34;5262534;28;20064;-78
2023/08/10 04:29:32;;;;;;;7.50;4.53;;;;;;;11.96;100.00;101964.25;5263303;28;20359;-77
2023/08/10 04:32:04;;;;;;;7.47;4.80;;;;;;;11.93;100.00;101957.28;5263680;28;20396;-78
2023/08/10 04:34:36;;;;;;;8.95;4.72;;;;;;;11.95;100.00;101966.00;5263235;28;20041;-79
2023/08/10 04:37:07;;;;;;;6.78;5.43;;;;;;;11.96;100.00;101966.84;5263554;28;20037;-79
2023/08/10 04:39:39;;;;;;;8.63;4.70;;;;;;;11.95;100.00;101966.00;5263278;28;20036;-78
2023/08/10 04:42:10;;;;;;;9.17;5.50;;;;;;;11.91;100.00;101969.44;5263535;28;20064;-79
2023/08/10 04:44:41;;;;;;;7.67;5.47;;;;;;;11.90;100.00;101972.03;5263396;28;20051;-79
2023/08/10 04:47:13;;;;;;;7.53;5.97;;;;;;;11.97;100.00;101973.84;5262849;28;20083;-78
2023/08/10 04:49:44;;;;;;;7.70;5.57;;;;;;;11.99;100.00;101977.31;5263245;28;20536;-78
2023/08/10 04:52:15;;;;;;;7.07;5.13;;;;;;;11.94;100.00;101981.66;5262892;28;20029;-78
2023/08/10 04:54:47;;;;;;;5.83;5.07;;;;;;;12.03;100.00;101989.53;5263040;28;20387;-77
2023/08/10 04:57:18;;;;;;;10.03;5.70;;;;;;;12.18;100.00;101980.81;5261850;28;20488;-79
2023/08/10 04:59:50;;;;;;;11.90;6.00;;;;;;;12.29;100.00;101981.66;5262968;28;20071;-78
2023/08/10 05:02:21;;;;;;;7.63;5.50;;;;;;;12.47;100.00;101985.16;5261658;28;20404;-78
2023/08/10 05:04:53;;;;;;;11.23;6.37;;;;;;;12.58;100.00;101979.00;5262906;28;20310;-77
2023/08/10 05:07:24;;;;;;;11.80;5.87;;;;;;;12.59;100.00;101986.00;5261894;28;20025;-77
2023/08/10 05:09:56;;;;;;;9.27;6.67;;;;;;;12.61;100.00;101985.13;5260860;28;20103;-78
2023/08/10 05:12:27;;;;;;;8.20;6.10;;;;;;;12.63;100.00;101981.63;5262923;28;20033;-78
2023/08/10 05:14:58;;;;;;;7.93;5.57;;;;;;;12.69;100.00;101972.91;5262718;28;20480;-78
2023/08/10 05:17:30;;;;;;;9.33;5.93;;;;;;;12.71;100.00;101974.63;5262715;28;20108;-78
2023/08/10 05:20:07;;;;;;;11.18;6.45;;;;;;;12.81;100.00;101972.84;5262726;28;20021;-77
2023/08/10 05:22:40;;;;;;;9.50;5.93;;;;;;;12.84;100.00;101980.69;5262664;28;20033;-77
2023/08/10 05:25:12;;;;;;;8.65;6.32;;;;;;;12.92;100.00;101983.28;5261487;28;20464;-78
2023/08/10 05:27:43;;;;;;;15.18;7.00;;;;;;;12.88;100.00;101982.44;5262632;28;20029;-77
2023/08/10 05:30:15;;;;;;;12.77;6.63;;;;;;;12.90;100.00;101988.53;5262839;28;20143;-78
2023/08/10 05:32:46;;;;;;;6.50;5.23;;;;;;;13.00;100.00;101978.91;5262253;28;20036;-77
2023/08/10 05:35:18;;;;;;;10.03;6.17;;;;;;;13.07;100.00;101977.13;5262521;28;20376;-79
2023/08/10 05:37:50;;;;;;;12.23;6.28;;;;;;;13.14;100.00;101981.47;5261247;28;20456;-78
2023/08/10 05:40:21;;;;;;;10.33;6.30;;;;;;;13.19;100.00;101977.06;5262046;28;20116;-78
2023/08/10 05:42:53;;;;;;;14.43;7.03;;;;;;;13.21;100.00;101977.06;5263484;28;20448;-78
2023/08/10 05:45:25;;;;;;;11.97;7.87;;;;;;;13.26;100.00;101970.06;5263348;28;20044;-77
2023/08/10 05:47:57;;;;;;;9.05;7.13;;;;;;;13.28;100.00;101973.53;5261902;28;20454;-77
2023/08/10 05:50:28;;;;;;;9.73;7.37;;;;;;;13.30;100.00;101970.03;5263282;28;20029;-77
2023/08/10 05:52:59;;;;;;;10.23;6.63;;;;;;;13.29;100.00;101970.03;5263046;28;20051;-79
2023/08/10 05:55:31;;;;;;;9.17;6.90;;;;;;;13.30;100.00;101969.19;5262878;28;20484;-78
2023/08/10 05:58:02;;;;;;;10.23;7.03;;;;;;;13.30;100.00;101977.91;5263542;28;20480;-77
2023/08/10 06:00:36;;;;;;;9.13;6.50;;;;;;;13.35;100.00;101977.91;5264613;28;20535;-77
2023/08/10 06:03:08;;;;;;;12.55;7.68;;;;;;;13.45;100.00;101976.97;5263891;28;20040;-77
2023/08/10 06:05:39;;;;;;;9.90;7.07;;;;;;;13.59;100.00;101976.03;5263109;28;20025;-79
2023/08/10 06:08:10;;;;;;;9.90;7.70;;;;;;;13.68;100.00;101976.84;5262825;28;20047;-77
2023/08/10 06:10:42;;;;;;;12.47;7.70;;;;;;;13.86;100.00;101983.72;5261889;28;20049;-78
2023/08/10 06:13:13;;;;;;;11.10;7.20;;;;;;;14.12;100.00;101984.38;5261725;28;20059;-78
2023/08/10 06:15:48;;;;;;;10.50;7.27;;;;;;;14.35;100.00;101981.56;5260916;28;20502;-78
2023/08/10 06:18:19;;;;;;;9.50;7.20;;;;;;;14.51;100.00;101980.50;5262227;28;20087;-79
2023/08/10 06:20:50;;;;;;;12.90;7.27;;;;;;;14.69;100.00;101989.13;5262110;28;20037;-78
2023/08/10 06:23:22;;;;;;;9.03;6.43;;;;;;;14.75;100.00;101984.66;5261165;28;20033;-77
2023/08/10 06:25:54;;;;;;;10.87;6.87;;;;;;;14.71;100.00;101977.69;5262824;28;20370;-78
2023/08/10 06:28:25;;;;;;;14.47;7.37;;;;;;;14.66;100.00;101981.28;5262710;28;20044;-82
2023/08/10 06:30:57;;;;;;;7.87;6.10;;;;;;;14.55;100.00;101984.88;5262634;28;20473;-78
2023/08/10 06:33:28;;;;;;;9.37;6.37;;;;;;;14.56;100.00;101991.81;5262248;28;20115;-78
2023/08/10 06:35:59;;;;;;;11.07;6.87;;;;;;;14.63;100.00;101989.19;5262016;28;20098;-78
2023/08/10 06:38:31;;;;;;;14.87;6.63;;;;;;;14.74;100.00;101987.31;5261367;28;20029;-77
2023/08/10 06:41:02;;;;;;;12.83;6.47;;;;;;;14.81;100.00;101978.50;5261759;28;20496;-78
2023/08/10 06:43:34;;;;;;;8.43;6.47;;;;;;;14.87;100.00;101965.28;5261783;28;20037;-79
2023/08/10 06:46:05;;;;;;;8.13;6.03;;;;;;;14.97;100.00;101976.53;5260454;28;20120;-78
2023/08/10 06:48:37;;;;;;;11.50;6.20;;;;;;;15.05;100.00;101972.09;5261706;28;20025;-77
2023/08/10 06:51:08;;;;;;;7.80;5.40;;;;;;;15.11;99.94;101971.13;5261219;28;20033;-78
2023/08/10 06:53:39;;;;;;;10.63;5.30;;;;;;;15.17;98.43;101968.41;5263233;28;20380;-78
2023/08/10 06:56:11;;;;;;;9.23;4.23;;;;;;;15.25;98.28;101966.56;5265130;28;20437;-78
2023/08/10 06:58:42;;;;;;;9.47;4.53;;;;;;;15.38;96.79;101969.03;5265226;28;20037;-78
2023/08/10 07:01:14;;;;;;;7.53;5.10;;;;;;;15.43;97.33;101967.19;5265275;28;20043;-79
2023/08/10 07:03:45;;;;;;;8.77;4.20;;;;;;;15.60;93.74;101974.81;5265294;28;20036;-77
2023/08/10 07:06:17;;;;;;;9.63;4.00;;;;;;;15.69;93.58;101972.94;5265324;28;20484;-78
2023/08/10 07:08:52;;;;;;;6.65;3.22;;;;;;;15.76;88.78;101971.13;5264917;28;20496;-78
2023/08/10 07:11:24;;;;;;;4.35;2.75;;;;;;;15.82;89.47;101973.63;5265300;28;20440;-77
2023/08/10 07:13:55;;;;;;;7.33;2.97;;;;;;;15.98;86.10;101969.00;5263442;28;20064;-77
2023/08/10 07:16:27;;;;;;;4.60;2.87;;;;;;;16.13;82.20;101964.38;5265143;28;20021;-78
2023/08/10 07:18:58;;;;;;;7.23;3.20;;;;;;;16.22;84.40;101956.34;5263543;28;20062;-79
2023/08/10 07:21:29;;;;;;;9.67;3.63;;;;;;;16.30;85.20;101964.09;5264755;28;20404;-77
2023/08/10 07:24:01;;;;;;;4.83;2.63;;;;;;;16.42;78.78;101963.84;5264768;28;20041;-79
2023/08/10 07:26:33;;;;;;;4.53;2.67;;;;;;;16.57;76.73;101971.47;5264850;28;20445;-78
2023/08/10 07:29:04;;;;;;;6.00;3.13;;;;;;;16.62;76.67;101974.03;5264467;28;20028;-78
2023/08/10 07:31:36;;;;;;;4.53;2.20;;;;;;;16.76;74.42;101976.41;5263483;28;20427;-78
2023/08/10 07:34:09;;;;;;;4.47;2.00;;;;;;;16.90;63.76;101978.78;5264347;28;20040;-78
2023/08/10 07:36:40;;;;;;;4.43;1.92;;;;;;;17.04;64.67;101984.63;5264551;28;20049;-78
2023/08/10 07:39:13;;;;;;;5.30;2.20;;;;;;;17.07;63.15;101979.31;5264219;28;20515;-79
2023/08/10 07:41:45;;;;;;;4.43;2.05;;;;;;;17.18;64.93;101967.66;5264173;28;20029;-78
2023/08/10 07:44:16;;;;;;;3.70;2.20;;;;;;;17.27;66.48;101972.75;5263301;28;20369;-78
2023/08/10 07:46:48;;;;;;;6.93;2.30;;;;;;;17.36;64.89;101979.59;5264517;28;20450;-79
2023/08/10 07:49:20;;;;;;;6.00;2.47;;;;;;;17.43;62.94;101979.41;5263402;28;20116;-78
2023/08/10 07:51:51;;;;;;;5.30;2.47;;;;;;;17.50;64.38;101977.53;5264345;28;20453;-79
2023/08/10 07:54:22;;;;;;;5.03;2.40;;;;;;;17.59;62.06;101979.91;5264605;28;20066;-79
2023/08/10 07:56:54;;;;;;;4.23;2.00;;;;;;;17.63;58.49;101981.59;5264568;28;20037;-78
2023/08/10 07:59:25;;;;;;;2.87;1.77;;;;;;;17.68;57.89;101982.34;5263974;28;20033;-77
2023/08/10 08:01:57;;;;;;;5.07;2.40;;;;;;;17.89;61.89;101982.78;5264207;28;20053;-79
2023/08/10 08:04:28;;;;;;;5.77;2.20;;;;;;;18.01;61.94;101982.47;5263384;28;20484;-78
2023/08/10 08:06:59;;;;;;;4.27;1.70;;;;;;;18.17;59.55;101988.22;5264076;28;20279;-78
2023/08/10 08:09:31;;;;;;;3.60;1.80;;;;;;;18.31;59.33;101984.38;5262097;28;20039;-78
2023/08/10 08:12:02;;;;;;;3.80;1.57;;;;;;;18.32;52.48;101989.63;5262741;28;20052;-78
2023/08/10 08:14:34;;;;;;;4.00;2.10;;;;;;;18.40;54.99;101981.47;5263652;28;20435;-78
2023/08/10 08:17:05;;;;;;;3.60;1.77;;;;;;;18.50;55.57;101984.75;5263871;28;20029;-80
2023/08/10 08:19:37;;;;;;;4.57;1.87;;;;;;;18.49;56.70;101981.25;5263923;28;20032;-79
2023/08/10 08:22:08;;;;;;;3.27;1.77;;;;;;;18.61;56.92;101980.03;5263776;28;20115;-78
2023/08/10 08:24:40;;;;;;;4.17;2.10;;;;;;;18.65;55.77;101978.19;5263590;28;20041;-79
2023/08/10 08:27:12;;;;;;;4.35;2.03;;;;;;;18.67;55.87;101982.50;5263677;28;20029;-78
2023/08/10 08:29:43;;;;;;;5.77;2.13;;;;;;;18.77;55.10;101977.84;5263537;28;20495;-77
2023/08/10 08:32:15;;;;;;;3.67;1.73;;;;;;;18.95;56.32;101985.28;5263795;28;20055;-79
2023/08/10 08:34:46;;;;;;;4.63;1.93;;;;;;;18.93;54.78;101973.91;5263742;28;20488;-79
2023/08/10 08:37:18;;;;;;;2.40;1.37;;;;;;;19.01;53.16;101980.72;5263521;28;20059;-78
2023/08/10 08:39:49;;;;;;;3.87;2.00;;;;;;;19.06;52.29;101984.97;5263622;28;20040;-78
2023/08/10 08:42:21;;;;;;;3.37;1.87;;;;;;;19.26;51.72;101983.53;5265103;28;20028;-77
2023/08/10 08:44:53;;;;;;;2.80;1.50;;;;;;;19.44;55.74;101988.22;5267370;28;20499;-79
2023/08/10 08:47:25;;;;;;;4.70;1.98;;;;;;;19.54;55.89;101988.81;5269518;28;20029;-77
2023/08/10 08:49:57;;;;;;;4.32;1.70;;;;;;;19.75;55.19;101981.13;5268549;28;20029;-79
2023/08/10 08:52:29;;;;;;;4.25;1.83;;;;;;;19.97;54.89;101982.19;5270693;28;20040;-77
2023/08/10 08:55:02;;;;;;;3.08;1.50;;;;;;;20.18;51.83;101992.97;5266377;28;20098;-77
2023/08/10 08:57:34;;;;;;;3.88;1.80;;;;;;;20.89;49.88;101985.19;5268798;28;20033;-76
2023/08/10 09:00:06;;;;;;;4.30;1.90;;;;;;;21.22;49.55;101988.38;5269034;28;20044;-79
2023/08/10 09:02:38;;;;;;;1.73;1.50;;;;;;;21.45;45.77;101987.47;5266848;28;20044;-78
2023/08/10 09:05:09;;;;;;;4.37;1.53;;;;;;;21.85;47.02;101975.28;5267161;28;20464;-80
2023/08/10 09:07:41;;;;;;;2.80;1.40;;;;;;;22.15;45.76;101982.00;5264957;28;20037;-78
2023/08/10 09:10:12;;;;;;;3.57;1.60;;;;;;;22.33;45.47;101980.38;5262856;28;20052;-79
2023/08/10 09:12:44;;;;;;;3.22;2.00;;;;;;;22.57;45.21;101967.81;5262980;28;20275;-78
2023/08/10 09:15:18;;;;;;;3.13;1.50;;;;;;;22.38;44.45;101966.00;5263729;28;20468;-80
2023/08/10 09:17:52;;;;;;;3.25;1.95;;;;;;;22.50;45.34;101967.22;5264321;28;20459;-79
2023/08/10 09:20:28;;;;;;;6.07;1.85;;;;;;;22.86;43.97;101970.97;5263987;28;20021;-79
2023/08/10 09:23:00;;;;;;;1.98;1.50;;;;;;;22.95;42.84;101959.91;5263023;28;20063;-79
2023/08/10 09:25:39;;;;;;;3.80;1.65;;;;;;;23.06;44.67;101962.06;5263383;28;20041;-79
2023/08/10 09:28:12;;;;;;;6.80;1.80;;;;;;;23.33;41.91;101967.91;5262975;28;20072;-80
2023/08/10 09:30:43;;;;;;;9.35;1.83;;;;;;;23.48;42.90;101971.63;5262703;28;20128;-79
2023/08/10 09:33:30;;;;;;;5.07;1.80;;;;;;;23.79;45.36;101960.31;5262811;28;20029;-78
2023/08/10 09:36:03;;;;;;;6.55;2.05;;;;;;;24.15;41.73;101964.78;5262832;28;20036;-80
2023/08/10 09:38:35;;;;;;;3.53;1.88;;;;;;;24.30;41.01;101955.13;5262507;28;20397;-80
2023/08/10 09:41:16;;;;;;;4.57;1.80;;;;;;;24.17;42.63;101962.03;5260655;28;20036;-79
2023/08/10 09:43:48;;;;;;;3.90;1.80;;;;;;;24.08;41.24;101958.03;5262505;28;20029;-78
2023/08/10 09:46:19;;;;;;;4.32;2.25;;;;;;;23.78;42.08;101966.63;5262594;28;20083;-79
2023/08/10 09:48:52;;;;;;;3.33;1.87;;;;;;;23.75;41.86;101966.75;5262246;28;20125;-79
2023/08/10 09:51:23;;;;;;;3.65;1.60;;;;;;;24.10;41.54;101964.16;5262753;28;20116;-80
2023/08/10 09:53:55;;;;;;;2.73;1.80;;;;;;;24.95;40.38;101962.34;5261531;28;20111;-80
2023/08/10 09:56:27;;;;;;;;;;;;;;;25.87;42.70;101961.63;5262687;28;20033;-80
2023/08/10 09:58:58;;;;;;;3.40;1.83;;;;;;;25.43;39.76;101960.59;5262887;28;20355;-80
2023/08/10 10:01:29;;;;;;;2.33;1.53;;;;;;;25.66;38.12;101963.75;5262504;28;20090;-80
2023/08/10 10:04:01;;;;;;;9.55;1.95;;;;;;;25.67;38.34;101957.47;5262239;28;20033;-80
2023/08/10 10:06:33;;;;;;;3.65;1.88;;;;;;;24.91;38.39;101968.81;5262189;28;20544;-81
2023/08/10 10:09:04;;;;;;;4.72;1.67;;;;;;;25.06;39.92;101967.97;5261731;28;20032;-80
2023/08/10 10:11:37;;;;;;;4.25;1.80;;;;;;;24.61;41.05;101958.00;5261728;28;20103;-80
2023/08/10 10:14:09;;;;;;;4.70;1.65;;;;;;;23.99;40.48;101961.19;5262299;28;20490;-80
2023/08/10 10:16:40;;;;;;;3.75;2.05;;;;;;;23.73;41.72;101965.97;5262001;28;20025;-80
2023/08/10 10:19:12;;;;;;;4.70;2.00;;;;;;;24.00;41.87;101971.72;5261913;28;20033;-79
2023/08/10 10:21:44;;;;;;;2.72;1.70;;;;;;;24.34;42.97;101972.69;5266894;28;20071;-80
2023/08/10 10:24:18;;;;;;;3.45;1.70;;;;;;;24.70;43.78;101969.03;5260999;28;20447;-80
2023/08/10 10:27:04;;;;;;;3.33;2.22;;;;;;;24.55;41.90;101975.16;5262122;28;20037;-79
2023/08/10 10:29:37;;;;;;;3.97;1.95;;;;;;;24.09;41.81;101974.91;5266190;28;20036;-80
2023/08/10 10:32:14;;;;;;;4.32;1.80;;;;;;;23.75;42.08;101974.75;5266064;28;20432;-79
2023/08/10 10:34:48;;;;;;;7.53;2.78;;;;;;;23.97;43.06;101982.56;5265919;28;20033;-81
2023/08/10 10:37:34;;;;;;;3.13;2.17;;;;;;;24.79;43.25;101964.16;5265959;28;20029;-80
2023/08/10 10:40:25;;;;;;;3.40;1.83;;;;;;;25.11;42.43;101960.56;5265574;28;20464;-80
2023/08/10 10:43:03;;;;;;;6.47;2.28;;;;;;;25.85;40.14;101968.88;5265940;28;20031;-80
2023/08/10 10:45:41;;;;;;;5.22;2.88;;;;;;;26.31;38.74;101966.16;5265759;28;20033;-80
2023/08/10 10:48:13;;;;;;;3.55;1.60;;;;;;;26.51;36.98;101967.59;5265796;28;20384;-80
2023/08/10 10:50:45;;;;;;;5.60;1.60;;;;;;;26.66;37.30;101964.97;5265734;28;20025;-81
2023/08/10 10:53:16;;;;;;;2.67;1.95;;;;;;;27.05;36.12;101963.44;5265895;28;20033;-80
2023/08/10 10:55:48;;;;;;;2.83;1.70;;;;;;;27.74;35.96;101955.38;5265522;28;20028;-81
2023/08/10 10:58:20;;;;;;;4.93;1.75;;;;;;;28.12;35.20;101949.28;5265752;28;20040;-80
2023/08/10 11:00:52;;;;;;;;;;;;;;;30.83;35.12;101952.50;5266050;28;20109;-81
2023/08/10 11:03:28;;;;;;;4.50;1.97;;;;;;;31.88;31.46;101950.16;5265626;28;20444;-81
2023/08/10 11:05:59;;;;;;;3.53;1.88;;;;;;;31.94;28.67;101954.16;5265906;28;20033;-80
2023/08/10 11:08:31;;;;;;;4.13;1.77;;;;;;;32.94;28.56;101955.38;5265458;28;20064;-80
2023/08/10 11:11:02;;;;;;;4.70;1.85;;;;;;;33.13;28.33;101958.13;5264866;28;20485;-81
2023/08/10 11:13:34;;;;;;;2.88;2.20;;;;;;;32.57;27.27;101958.63;5265299;28;20037;-82
2023/08/10 11:16:07;;;;;;;3.30;1.90;;;;;;;31.02;28.75;101943.81;5264741;28;20033;-79
2023/08/10 11:18:38;;;;;;;4.13;2.28;;;;;;;30.34;32.34;101949.19;5269060;28;20384;-81
2023/08/10 11:21:10;;;;;;;4.55;2.30;;;;;;;29.65;33.58;101941.88;5272579;28;20044;-80
2023/08/10 11:23:41;;;;;;;4.15;2.05;;;;;;;29.68;35.38;101947.03;5270354;28;20044;-83
2023/08/10 11:26:13;;;;;;;;;;;;;;;31.27;34.90;101942.66;5263970;28;20612;-80
2023/08/10 11:28:45;;;;;;;3.33;1.90;;;;;;;32.11;30.46;101944.66;5263841;28;19913;-80
2023/08/10 11:31:17;;;;;;;3.58;2.10;;;;;;;33.12;29.88;101937.53;5264701;28;20037;-80
2023/08/10 11:33:50;;;;;;;3.53;2.17;;;;;;;32.04;29.57;101932.63;5263710;28;20032;-80
2023/08/10 11:36:23;;;;;;;3.47;2.20;;;;;;;31.12;31.33;101939.38;5264908;28;20503;-80
2023/08/10 11:38:54;;;;;;;3.67;2.15;;;;;;;31.22;30.96;101926.03;5263277;28;20053;-79
2023/08/10 11:41:26;;;;;;;3.67;1.90;;;;;;;31.97;29.92;101932.31;5264774;28;20475;-81
2023/08/10 11:43:57;;;;;;;3.55;2.30;;;;;;;33.13;27.27;101932.97;5264708;28;20417;-82
2023/08/10 11:46:29;;;;;;;6.47;2.50;;;;;;;32.34;28.33;101924.59;5264655;28;20029;-80